KBPI/BPI METAR and TAF weather

Enter ICAO airport designator
Station Type Date Time Source
KBPI METAR 2019/02/23 16:53 UTC NOAA

KBPI 231653Z AUTO 00000KT 10SM CLR M16/M20 A3000 RMK AO2 SLP274 T11611200


Station Type Date Time Source
KBPI Decoded METAR 2019/02/23 16:53 UTC NOAA

BIG PINEY-MARBLETON AIRPORT, WY, United States (KBPI) 42-35N 110-06W 2117M
Feb 23, 2019 - 11:53 AM EST / 2019.02.23 1653 UTC
Wind: Calm:0
Visibility: 10 mile(s):0
Sky conditions: clear
Temperature: 3.0 F (-16.1 C)
Dew Point: -4.0 F (-20.0 C)
Relative Humidity: 71%
Pressure (altimeter): 30 in. Hg (1015 hPa)
ob: KBPI 231653Z AUTO 00000KT 10SM CLR M16/M20 A3000 RMK AO2 SLP274 T11611200
cycle: 17

Station Type Date Time Source
KBPI TAF 2019/02/23 12:28 UTC NOAA

TAF KBPI 231126Z 2312/2412 VRB04KT P6SM FEW100 SCT150
FM231900 29007KT P6SM SCT030 BKN060
FM240800 VRB05KT P6SM -SN SCT020 BKN030


Example: see airport list